Flight Track Log - Related Links

Times and Time Zones

All times are in EDT time to prevent confusion due to time zone crossing. See the SWA419 flight status page for this flight to view local times or setup timezone preferences in your user account.

Time Position Orientation Groundspeed Altitude Reporting Facility
EDT Latitude Longitude Course Direction KTS MPH feet Rate Location/Type
Fri 12:11:37 PM 43.4992 -70.3992 206° Southwest 260 299 10,000  Level Boston Center
Fri 12:12:37 PM 43.4233 -70.4706 214° Southwest 288 331 12,100 2,975 Climbing Boston Center
Fri 12:13:38 PM 43.3536 -70.5383 215° Southwest 312 359 16,000 3,231 Climbing Boston Center
Fri 12:14:00 PM 43.1578 -70.6942 209° Southwest  Level FlightAware Approximate
Fri 12:15:00 PM 43.0855 -70.7549 210° Southwest  Level FlightAware Approximate
Fri 12:15:00 PM 43.2448 -70.6290 209° Southwest  Level FlightAware Approximate
Fri 12:15:39 PM 43.2078 -70.6769 209° Southwest 330 380 21,900  Level Boston Center
Fri 12:16:00 PM 43.0033 -70.8145 206° Southwest  Level FlightAware Approximate
Fri 12:16:38 PM 43.1236 -70.7475 211° Southwest 342 394 24,000  Level Boston Center
Fri 12:17:38 PM 43.0328 -70.8153 209° Southwest 361 415 26,100 1,835 Climbing Boston Center
Fri 12:18:39 PM 42.9339 -70.8889 209° Southwest 385 443 27,700 1,714 Climbing Boston Center
Fri 12:19:37 PM 42.8283 -70.9594 206° Southwest 407 468 29,500 1,169 Climbing Boston Center
Fri 12:20:37 PM 42.7144 -71.0158 200° South 422 486 30,000 248 Climbing Boston Center
Fri 12:21:38 PM 42.6047 -71.0692 200° South 422 486 30,000 98 Level Boston Center
Fri 12:22:39 PM 42.4969 -71.1250 201° Southwest 427 491 30,200 1,008 Climbing Boston Center
Fri 12:23:37 PM 42.4275 -71.2475 233° Southwest 398 458 32,000 908 Climbing Boston Center
Fri 12:24:38 PM 42.3622 -71.3947 239° Southwest 416 479 32,000  Level Boston Center
Fri 12:25:38 PM 42.2967 -71.5278 236° Southwest 421 484 32,000 -200 Level Boston Center
Fri 12:26:38 PM 42.2311 -71.6606 236° Southwest 426 490 31,600 -335 Descending Boston Center
Fri 12:28:00 PM 42.1875 -71.8375 246° West  Level FlightAware Approximate
Fri 12:28:37 PM 42.1033 -71.9225 246° West 421 484 31,000  Level Boston Center
Fri 12:29:37 PM 42.0372 -72.0572 237° Southwest 421 484 31,000  Level Boston Center
Fri 12:30:38 PM 41.9728 -72.1917 237° Southwest 426 490 31,000  Level Boston Center
Fri 12:31:38 PM 41.9086 -72.3228 237° Southwest 426 490 31,000 -397 Level Boston Center
Fri 12:32:39 PM 41.8439 -72.4567 237° Southwest 426 490 30,200 -504 Descending Boston Center
Fri 12:33:37 PM 41.7792 -72.5878 237° Southwest 426 490 30,000 -102 Descending Boston Center
Fri 12:34:37 PM 41.7247 -72.6961 236° Southwest 426 490 30,000  Level Boston Center
Fri 12:35:38 PM 41.6514 -72.8403 236° Southwest 433 498 30,000  Level Boston Center
Fri 12:36:38 PM 41.5883 -72.9731 238° Southwest 433 498 30,000  Level Boston Center
Fri 12:37:39 PM 41.5169 -73.1164 236° Southwest 428 493 30,000  Level Boston Center
Fri 12:38:39 PM 41.4514 -73.2489 237° Southwest 428 493 30,000  Level Boston Center
Fri 12:39:37 PM 41.3858 -73.3753 235° Southwest 428 493 30,000  Level Boston Center
Fri 12:40:37 PM 41.3219 -73.5069 237° Southwest 428 493 30,000  Level Boston Center
Fri 12:41:38 PM 41.2519 -73.6328 234° Southwest 428 493 30,000  Level Boston Center
Fri 12:41:58 PM 41.2258 -73.6786 233° Southwest 430 495 30,000  Level New York Center
Fri 12:42:58 PM 41.1519 -73.8022 232° Southwest 423 487 30,000  Level New York Center
Fri 12:43:59 PM 41.0800 -73.9228 232° Southwest 428 493 30,000 -393 Level New York Center
Fri 12:45:00 PM 41.0078 -74.0461 232° Southwest 433 498 29,200 -885 Descending New York Center
Fri 12:46:01 PM 40.9336 -74.1658 231° Southwest 433 498 28,200 -966 Descending New York Center
Fri 12:46:58 PM 40.8681 -74.2753 232° Southwest 433 498 27,300 -966 Descending New York Center
Fri 12:47:59 PM 40.7936 -74.3919 230° Southwest 428 493 26,300 -645 Descending New York Center
Fri 12:48:59 PM 40.7253 -74.5089 232° Southwest 428 493 26,000 -347 Descending New York Center
Fri 12:50:00 PM 40.6550 -74.6225 231° Southwest 423 487 25,600 -694 Descending New York Center
Fri 12:51:00 PM 40.5867 -74.7361 232° Southwest 417 480 24,600 -1,050 Descending New York Center
Fri 12:52:00 PM 40.5164 -74.8414 229° Southwest 405 466 23,500 -1,059 Descending New York Center
Fri 12:52:59 PM 40.4464 -74.9356 226° Southwest 387 445 22,500 -950 Descending New York Center
Fri 12:54:00 PM 40.3783 -75.0322 227° Southwest 374 430 21,600 -992 Descending New York Center
Fri 12:55:00 PM 40.3103 -75.1258 226° Southwest 362 417 20,500 -1,169 Descending New York Center
Fri 12:55:58 PM 40.2378 -75.2300 228° Southwest 362 417 19,300 -763 Descending New York Center
Fri 12:56:58 PM 40.1761 -75.3131 226° Southwest 362 417 19,000 -149 Descending New York Center
Fri 12:57:59 PM 40.1056 -75.4117 227° Southwest 355 409 19,000  Level New York Center
Fri 12:59:01 PM 40.0461 -75.4944 227° Southwest 355 409 19,000  Level New York Center
Fri 12:59:58 PM 39.9753 -75.5925 227° Southwest 350 403 19,000  Level New York Center
Fri 01:00:58 PM 39.9178 -75.6725 227° Southwest 350 403 19,000  Level New York Center
Fri 01:01:59 PM 39.8567 -75.7872 235° Southwest 350 403 19,000 -1,339 Level New York Center
Fri 01:02:59 PM 39.8044 -75.8861 236° Southwest 350 403 16,300 -2,271 Descending New York Center
Fri 01:04:56 PM 39.7000 -76.0833 236° Southwest 304 350 12,300 -1,593 Descending Potomac TRACON
Fri 01:05:56 PM 39.6667 -76.1667 243° Southwest 259 298 11,600 -900 Descending Potomac TRACON
Fri 01:06:56 PM 39.6333 -76.2500 243° Southwest 258 297 10,500 -1,053 Descending Potomac TRACON
Fri 01:07:50 PM 39.6000 -76.3167 237° Southwest 248 285 9,600 -1,105 Descending Potomac TRACON
Fri 01:08:50 PM 39.5667 -76.3833 237° Southwest 240 276 8,400 -1,333 Descending Potomac TRACON
Fri 01:09:56 PM 39.5333 -76.4667 243° Southwest 223 257 6,800 -1,537 Descending Potomac TRACON
Fri 01:10:51 PM 39.5000 -76.5333 237° Southwest 225 259 5,300 -1,474 Descending Potomac TRACON
Fri 01:11:50 PM 39.4667 -76.6000 237° Southwest 231 266 4,000 -655 Descending Potomac TRACON
Fri 01:12:50 PM 39.4500 -76.6667 252° West 223 257 4,000  Level Potomac TRACON
Fri 01:13:51 PM 39.4167 -76.7333 237° Southwest 218 251 4,000 -595 Level Potomac TRACON
Fri 01:14:51 PM 39.3667 -76.7667 207° Southwest 211 243 2,800 -700 Descending Potomac TRACON
Fri 01:15:51 PM 39.3000 -76.7833 191° South 193 222 2,600 -316 Descending Potomac TRACON
Fri 01:16:45 PM 39.2667 -76.7833 180° South 182 209 2,200 -600 Descending Potomac TRACON
Fri 01:17:51 PM 39.2167 -76.7833 180° South 155 178 1,400 -550 Descending Potomac TRACON
Fri 01:18:45 PM 39.1833 -76.7500 142° Southeast 156 180 1,100 -333 Descending Potomac TRACON
Fri 01:20:00 PM 39.1667 -76.6667 270° West  Level FlightAware Approximate
Fri 01:27:00 PM 39.1754 -76.6683 270° West  Level Estimated
Fri 01:28:00 PM 39.1754 -76.6683 270° West  Level Estimated
Fri 01:29:00 PM 39.1754 -76.6683 270° West  Level Estimated
Fri 01:30:00 PM 39.1754 -76.6683 270° West  Level Estimated

Login

Don't have an account? Register now (free) for customized features, flight alerts, and more!